sensor_id;sensor_type;location;lat;lon;timestamp;P1;durP1;ratioP1;P2;durP2;ratioP2
5175;SDS011;2607;50.934;6.934;2022-08-01T00:00:21;2.00;;;1.80;;
5175;SDS011;2607;50.934;6.934;2022-08-01T00:02:46;4.37;;;2.87;;
5175;SDS011;2607;50.934;6.934;2022-08-01T00:05:12;6.13;;;2.03;;
5175;SDS011;2607;50.934;6.934;2022-08-01T00:07:38;1.90;;;1.80;;
5175;SDS011;2607;50.934;6.934;2022-08-01T00:10:04;2.73;;;1.77;;
5175;SDS011;2607;50.934;6.934;2022-08-01T00:12:32;1.90;;;1.80;;
5175;SDS011;2607;50.934;6.934;2022-08-01T00:14:58;1.50;;;1.40;;
5175;SDS011;2607;50.934;6.934;2022-08-01T00:17:24;2.17;;;2.00;;
5175;SDS011;2607;50.934;6.934;2022-08-01T00:19:50;1.70;;;1.60;;
5175;SDS011;2607;50.934;6.934;2022-08-01T00:22:15;2.50;;;1.70;;
5175;SDS011;2607;50.934;6.934;2022-08-01T00:24:41;1.90;;;1.80;;
5175;SDS011;2607;50.934;6.934;2022-08-01T00:27:07;7.77;;;1.77;;
5175;SDS011;2607;50.934;6.934;2022-08-01T00:29:32;1.73;;;1.63;;
5175;SDS011;2607;50.934;6.934;2022-08-01T00:31:58;1.47;;;1.47;;
5175;SDS011;2607;50.934;6.934;2022-08-01T00:34:23;1.83;;;1.73;;
5175;SDS011;2607;50.934;6.934;2022-08-01T00:36:49;1.67;;;1.57;;
5175;SDS011;2607;50.934;6.934;2022-08-01T00:39:14;1.87;;;1.77;;
5175;SDS011;2607;50.934;6.934;2022-08-01T00:41:40;3.57;;;2.00;;
5175;SDS011;2607;50.934;6.934;2022-08-01T00:44:05;2.27;;;2.17;;
5175;SDS011;2607;50.934;6.934;2022-08-01T00:46:32;3.03;;;2.10;;
5175;SDS011;2607;50.934;6.934;2022-08-01T00:48:58;1.93;;;1.83;;
5175;SDS011;2607;50.934;6.934;2022-08-01T00:51:24;1.70;;;1.60;;
5175;SDS011;2607;50.934;6.934;2022-08-01T00:53:51;2.03;;;1.93;;
5175;SDS011;2607;50.934;6.934;2022-08-01T00:56:17;2.83;;;1.70;;
5175;SDS011;2607;50.934;6.934;2022-08-01T00:58:45;3.53;;;2.80;;
5175;SDS011;2607;50.934;6.934;2022-08-01T01:01:11;5.10;;;1.80;;
5175;SDS011;2607;50.934;6.934;2022-08-01T01:03:36;2.00;;;1.90;;
5175;SDS011;2607;50.934;6.934;2022-08-01T01:06:10;2.33;;;2.13;;
5175;SDS011;2607;50.934;6.934;2022-08-01T01:08:54;2.03;;;1.93;;
5175;SDS011;2607;50.934;6.934;2022-08-01T01:11:32;2.13;;;2.00;;
5175;SDS011;2607;50.934;6.934;2022-08-01T01:14:10;2.07;;;1.97;;
5175;SDS011;2607;50.934;6.934;2022-08-01T01:16:46;2.00;;;1.90;;
5175;SDS011;2607;50.934;6.934;2022-08-01T01:19:13;1.83;;;1.73;;
5175;SDS011;2607;50.934;6.934;2022-08-01T01:21:58;1.43;;;1.43;;
5175;SDS011;2607;50.934;6.934;2022-08-01T01:24:45;2.93;;;2.20;;
5175;SDS011;2607;50.934;6.934;2022-08-01T01:27:18;2.37;;;2.27;;
5175;SDS011;2607;50.934;6.934;2022-08-01T01:29:54;6.40;;;2.20;;
5175;SDS011;2607;50.934;6.934;2022-08-01T01:32:28;2.67;;;2.17;;
5175;SDS011;2607;50.934;6.934;2022-08-01T01:34:59;2.60;;;2.17;;
5175;SDS011;2607;50.934;6.934;2022-08-01T01:37:31;1.70;;;1.60;;
5175;SDS011;2607;50.934;6.934;2022-08-01T01:39:59;3.33;;;2.20;;
5175;SDS011;2607;50.934;6.934;2022-08-01T01:42:27;3.00;;;2.70;;
5175;SDS011;2607;50.934;6.934;2022-08-01T01:44:54;2.53;;;2.33;;
5175;SDS011;2607;50.934;6.934;2022-08-01T01:47:21;1.87;;;1.83;;
5175;SDS011;2607;50.934;6.934;2022-08-01T01:49:49;5.13;;;2.37;;
5175;SDS011;2607;50.934;6.934;2022-08-01T01:52:17;5.83;;;2.77;;
5175;SDS011;2607;50.934;6.934;2022-08-01T01:54:45;2.10;;;2.00;;
5175;SDS011;2607;50.934;6.934;2022-08-01T01:57:13;2.20;;;2.10;;
5175;SDS011;2607;50.934;6.934;2022-08-01T01:59:41;2.90;;;2.70;;
5175;SDS011;2607;50.934;6.934;2022-08-01T02:02:08;3.43;;;2.43;;
5175;SDS011;2607;50.934;6.934;2022-08-01T02:04:37;2.53;;;2.33;;
5175;SDS011;2607;50.934;6.934;2022-08-01T02:07:07;2.03;;;1.93;;
5175;SDS011;2607;50.934;6.934;2022-08-01T02:09:37;2.20;;;2.10;;
5175;SDS011;2607;50.934;6.934;2022-08-01T02:12:04;2.27;;;2.07;;
5175;SDS011;2607;50.934;6.934;2022-08-01T02:14:32;2.60;;;2.20;;
5175;SDS011;2607;50.934;6.934;2022-08-01T02:17:00;2.50;;;2.30;;
5175;SDS011;2607;50.934;6.934;2022-08-01T02:19:28;2.80;;;2.13;;
5175;SDS011;2607;50.934;6.934;2022-08-01T02:21:56;7.30;;;2.10;;
5175;SDS011;2607;50.934;6.934;2022-08-01T02:24:34;2.43;;;2.23;;
5175;SDS011;2607;50.934;6.934;2022-08-01T02:27:12;4.73;;;2.40;;
5175;SDS011;2607;50.934;6.934;2022-08-01T02:29:43;2.63;;;2.40;;
5175;SDS011;2607;50.934;6.934;2022-08-01T02:32:16;2.17;;;1.97;;
5175;SDS011;2607;50.934;6.934;2022-08-01T02:34:55;3.53;;;2.40;;
5175;SDS011;2607;50.934;6.934;2022-08-01T02:37:25;3.07;;;2.40;;
5175;SDS011;2607;50.934;6.934;2022-08-01T02:39:53;5.17;;;2.57;;
5175;SDS011;2607;50.934;6.934;2022-08-01T02:42:19;3.70;;;2.90;;
5175;SDS011;2607;50.934;6.934;2022-08-01T02:44:49;3.00;;;2.80;;
5175;SDS011;2607;50.934;6.934;2022-08-01T02:47:16;5.27;;;3.03;;
5175;SDS011;2607;50.934;6.934;2022-08-01T02:49:46;2.70;;;2.50;;
5175;SDS011;2607;50.934;6.934;2022-08-01T02:52:14;2.80;;;2.60;;
5175;SDS011;2607;50.934;6.934;2022-08-01T02:54:42;2.87;;;2.67;;
5175;SDS011;2607;50.934;6.934;2022-08-01T02:57:10;3.47;;;2.90;;
5175;SDS011;2607;50.934;6.934;2022-08-01T02:59:37;5.60;;;2.60;;
5175;SDS011;2607;50.934;6.934;2022-08-01T03:02:05;2.83;;;2.43;;
5175;SDS011;2607;50.934;6.934;2022-08-01T03:04:33;2.63;;;2.53;;
5175;SDS011;2607;50.934;6.934;2022-08-01T03:07:01;9.07;;;5.30;;
5175;SDS011;2607;50.934;6.934;2022-08-01T03:09:29;9.17;;;7.23;;
5175;SDS011;2607;50.934;6.934;2022-08-01T03:11:58;7.07;;;4.77;;
5175;SDS011;2607;50.934;6.934;2022-08-01T03:14:26;3.70;;;3.40;;
5175;SDS011;2607;50.934;6.934;2022-08-01T03:16:55;5.97;;;3.80;;
5175;SDS011;2607;50.934;6.934;2022-08-01T03:19:22;4.13;;;3.20;;
5175;SDS011;2607;50.934;6.934;2022-08-01T03:21:51;3.90;;;3.70;;
5175;SDS011;2607;50.934;6.934;2022-08-01T03:24:18;10.10;;;8.33;;
5175;SDS011;2607;50.934;6.934;2022-08-01T03:26:46;4.23;;;3.90;;
5175;SDS011;2607;50.934;6.934;2022-08-01T03:29:15;4.30;;;3.20;;
5175;SDS011;2607;50.934;6.934;2022-08-01T03:31:45;7.43;;;6.77;;
5175;SDS011;2607;50.934;6.934;2022-08-01T03:34:12;9.50;;;6.83;;
5175;SDS011;2607;50.934;6.934;2022-08-01T03:36:43;7.07;;;3.90;;
5175;SDS011;2607;50.934;6.934;2022-08-01T03:39:11;3.13;;;2.93;;
5175;SDS011;2607;50.934;6.934;2022-08-01T03:41:40;3.07;;;2.87;;
5175;SDS011;2607;50.934;6.934;2022-08-01T03:44:13;3.80;;;3.50;;
5175;SDS011;2607;50.934;6.934;2022-08-01T03:46:42;4.00;;;3.07;;
5175;SDS011;2607;50.934;6.934;2022-08-01T03:49:14;3.97;;;3.30;;
5175;SDS011;2607;50.934;6.934;2022-08-01T03:51:45;5.27;;;3.50;;
5175;SDS011;2607;50.934;6.934;2022-08-01T03:54:14;4.80;;;4.13;;
5175;SDS011;2607;50.934;6.934;2022-08-01T03:56:43;6.50;;;4.30;;
5175;SDS011;2607;50.934;6.934;2022-08-01T03:59:10;4.57;;;4.17;;
5175;SDS011;2607;50.934;6.934;2022-08-01T04:01:36;5.00;;;4.47;;
5175;SDS011;2607;50.934;6.934;2022-08-01T04:04:02;5.10;;;4.00;;
5175;SDS011;2607;50.934;6.934;2022-08-01T04:06:30;6.33;;;4.50;;
5175;SDS011;2607;50.934;6.934;2022-08-01T04:08:56;6.43;;;4.90;;
5175;SDS011;2607;50.934;6.934;2022-08-01T04:11:25;5.97;;;4.13;;
5175;SDS011;2607;50.934;6.934;2022-08-01T04:13:52;5.00;;;4.63;;
5175;SDS011;2607;50.934;6.934;2022-08-01T04:16:22;8.70;;;4.73;;
5175;SDS011;2607;50.934;6.934;2022-08-01T04:18:48;5.47;;;4.80;;
5175;SDS011;2607;50.934;6.934;2022-08-01T04:21:13;6.20;;;4.60;;
5175;SDS011;2607;50.934;6.934;2022-08-01T04:23:41;5.33;;;4.37;;
5175;SDS011;2607;50.934;6.934;2022-08-01T04:26:10;4.73;;;4.30;;
5175;SDS011;2607;50.934;6.934;2022-08-01T04:28:38;4.93;;;4.43;;
5175;SDS011;2607;50.934;6.934;2022-08-01T04:31:07;5.77;;;4.60;;
5175;SDS011;2607;50.934;6.934;2022-08-01T04:33:38;4.63;;;4.23;;
5175;SDS011;2607;50.934;6.934;2022-08-01T04:36:07;6.47;;;4.93;;
5175;SDS011;2607;50.934;6.934;2022-08-01T04:38:36;5.13;;;4.50;;
5175;SDS011;2607;50.934;6.934;2022-08-01T04:41:03;8.53;;;6.00;;
5175;SDS011;2607;50.934;6.934;2022-08-01T04:43:31;6.13;;;4.70;;
5175;SDS011;2607;50.934;6.934;2022-08-01T04:45:58;5.87;;;5.27;;
5175;SDS011;2607;50.934;6.934;2022-08-01T04:48:24;9.33;;;5.13;;
5175;SDS011;2607;50.934;6.934;2022-08-01T04:50:50;5.10;;;4.60;;
5175;SDS011;2607;50.934;6.934;2022-08-01T04:53:17;6.43;;;4.70;;
5175;SDS011;2607;50.934;6.934;2022-08-01T04:55:47;5.73;;;5.30;;
5175;SDS011;2607;50.934;6.934;2022-08-01T04:58:14;6.57;;;5.63;;
5175;SDS011;2607;50.934;6.934;2022-08-01T05:00:40;8.87;;;4.80;;
5175;SDS011;2607;50.934;6.934;2022-08-01T05:03:06;14.53;;;5.60;;
5175;SDS011;2607;50.934;6.934;2022-08-01T05:05:32;6.10;;;5.50;;
5175;SDS011;2607;50.934;6.934;2022-08-01T05:07:57;5.50;;;5.00;;
5175;SDS011;2607;50.934;6.934;2022-08-01T05:10:23;6.03;;;4.87;;
5175;SDS011;2607;50.934;6.934;2022-08-01T05:12:50;6.30;;;5.67;;
5175;SDS011;2607;50.934;6.934;2022-08-01T05:15:16;7.00;;;5.17;;
5175;SDS011;2607;50.934;6.934;2022-08-01T05:17:42;8.50;;;5.60;;
5175;SDS011;2607;50.934;6.934;2022-08-01T05:20:08;6.30;;;5.70;;
5175;SDS011;2607;50.934;6.934;2022-08-01T05:22:34;7.87;;;5.47;;
5175;SDS011;2607;50.934;6.934;2022-08-01T05:24:59;8.00;;;5.70;;
5175;SDS011;2607;50.934;6.934;2022-08-01T05:27:25;8.40;;;5.80;;
5175;SDS011;2607;50.934;6.934;2022-08-01T05:29:51;6.07;;;5.20;;
5175;SDS011;2607;50.934;6.934;2022-08-01T05:32:17;7.53;;;5.87;;
5175;SDS011;2607;50.934;6.934;2022-08-01T05:34:43;7.10;;;5.50;;
5175;SDS011;2607;50.934;6.934;2022-08-01T05:37:09;6.87;;;5.83;;
5175;SDS011;2607;50.934;6.934;2022-08-01T05:39:35;9.83;;;5.73;;
5175;SDS011;2607;50.934;6.934;2022-08-01T05:42:01;6.67;;;6.03;;
5175;SDS011;2607;50.934;6.934;2022-08-01T05:44:27;11.13;;;6.90;;
5175;SDS011;2607;50.934;6.934;2022-08-01T05:46:52;9.00;;;6.23;;
5175;SDS011;2607;50.934;6.934;2022-08-01T05:49:18;8.60;;;7.07;;
5175;SDS011;2607;50.934;6.934;2022-08-01T05:51:43;10.13;;;7.20;;
5175;SDS011;2607;50.934;6.934;2022-08-01T05:54:09;8.60;;;7.63;;
5175;SDS011;2607;50.934;6.934;2022-08-01T05:56:35;11.47;;;8.90;;
5175;SDS011;2607;50.934;6.934;2022-08-01T05:59:00;8.20;;;7.50;;
5175;SDS011;2607;50.934;6.934;2022-08-01T06:01:26;12.00;;;8.87;;
5175;SDS011;2607;50.934;6.934;2022-08-01T06:03:51;8.63;;;7.67;;
5175;SDS011;2607;50.934;6.934;2022-08-01T06:06:19;13.67;;;8.63;;
5175;SDS011;2607;50.934;6.934;2022-08-01T06:08:45;12.37;;;9.17;;
5175;SDS011;2607;50.934;6.934;2022-08-01T06:11:11;11.80;;;9.87;;
5175;SDS011;2607;50.934;6.934;2022-08-01T06:13:36;18.87;;;9.03;;
5175;SDS011;2607;50.934;6.934;2022-08-01T06:16:02;10.60;;;9.50;;
5175;SDS011;2607;50.934;6.934;2022-08-01T06:18:27;11.40;;;10.00;;
5175;SDS011;2607;50.934;6.934;2022-08-01T06:20:53;11.37;;;8.77;;
5175;SDS011;2607;50.934;6.934;2022-08-01T06:23:19;12.60;;;8.60;;
5175;SDS011;2607;50.934;6.934;2022-08-01T06:25:45;16.07;;;9.00;;
5175;SDS011;2607;50.934;6.934;2022-08-01T06:28:12;10.83;;;9.27;;
5175;SDS011;2607;50.934;6.934;2022-08-01T06:30:37;14.60;;;9.40;;
5175;SDS011;2607;50.934;6.934;2022-08-01T06:33:03;12.23;;;9.27;;
5175;SDS011;2607;50.934;6.934;2022-08-01T06:35:29;11.00;;;8.80;;
5175;SDS011;2607;50.934;6.934;2022-08-01T06:37:56;10.70;;;8.33;;
5175;SDS011;2607;50.934;6.934;2022-08-01T06:40:22;12.17;;;8.73;;
5175;SDS011;2607;50.934;6.934;2022-08-01T06:42:47;12.93;;;8.73;;
5175;SDS011;2607;50.934;6.934;2022-08-01T06:45:13;10.67;;;9.27;;
5175;SDS011;2607;50.934;6.934;2022-08-01T06:47:40;9.63;;;8.53;;
5175;SDS011;2607;50.934;6.934;2022-08-01T06:50:07;11.73;;;8.97;;
5175;SDS011;2607;50.934;6.934;2022-08-01T06:52:34;13.53;;;8.77;;
5175;SDS011;2607;50.934;6.934;2022-08-01T06:55:00;10.80;;;8.93;;
5175;SDS011;2607;50.934;6.934;2022-08-01T06:57:26;16.40;;;9.63;;
5175;SDS011;2607;50.934;6.934;2022-08-01T06:59:52;9.93;;;9.00;;
5175;SDS011;2607;50.934;6.934;2022-08-01T07:02:18;10.20;;;9.00;;
5175;SDS011;2607;50.934;6.934;2022-08-01T07:04:44;11.40;;;8.53;;
5175;SDS011;2607;50.934;6.934;2022-08-01T07:07:10;9.90;;;8.10;;
5175;SDS011;2607;50.934;6.934;2022-08-01T07:09:35;12.13;;;9.90;;
5175;SDS011;2607;50.934;6.934;2022-08-01T07:12:02;8.63;;;7.83;;
5175;SDS011;2607;50.934;6.934;2022-08-01T07:14:28;9.43;;;8.50;;
5175;SDS011;2607;50.934;6.934;2022-08-01T07:16:53;10.67;;;9.10;;
5175;SDS011;2607;50.934;6.934;2022-08-01T07:19:19;10.40;;;8.80;;
5175;SDS011;2607;50.934;6.934;2022-08-01T07:21:45;11.00;;;8.93;;
5175;SDS011;2607;50.934;6.934;2022-08-01T07:24:11;10.00;;;8.50;;
5175;SDS011;2607;50.934;6.934;2022-08-01T07:26:39;9.97;;;8.00;;
5175;SDS011;2607;50.934;6.934;2022-08-01T07:29:08;9.23;;;7.70;;
5175;SDS011;2607;50.934;6.934;2022-08-01T07:31:34;10.20;;;9.10;;
5175;SDS011;2607;50.934;6.934;2022-08-01T07:33:59;13.00;;;8.50;;
5175;SDS011;2607;50.934;6.934;2022-08-01T07:36:25;9.13;;;8.27;;
5175;SDS011;2607;50.934;6.934;2022-08-01T07:38:51;9.93;;;8.00;;
5175;SDS011;2607;50.934;6.934;2022-08-01T07:41:16;9.60;;;8.50;;
5175;SDS011;2607;50.934;6.934;2022-08-01T07:43:42;11.27;;;8.93;;
5175;SDS011;2607;50.934;6.934;2022-08-01T07:46:08;9.40;;;8.50;;
5175;SDS011;2607;50.934;6.934;2022-08-01T07:48:33;9.87;;;8.83;;
5175;SDS011;2607;50.934;6.934;2022-08-01T07:50:59;9.40;;;8.60;;
5175;SDS011;2607;50.934;6.934;2022-08-01T07:53:25;10.40;;;9.50;;
5175;SDS011;2607;50.934;6.934;2022-08-01T07:55:51;10.27;;;9.37;;
5175;SDS011;2607;50.934;6.934;2022-08-01T07:58:16;13.63;;;7.73;;
5175;SDS011;2607;50.934;6.934;2022-08-01T08:00:42;18.40;;;9.50;;
5175;SDS011;2607;50.934;6.934;2022-08-01T08:03:08;8.37;;;7.53;;
5175;SDS011;2607;50.934;6.934;2022-08-01T08:05:34;10.67;;;8.80;;
5175;SDS011;2607;50.934;6.934;2022-08-01T08:08:05;9.13;;;8.23;;
5175;SDS011;2607;50.934;6.934;2022-08-01T08:10:31;8.47;;;7.70;;
5175;SDS011;2607;50.934;6.934;2022-08-01T08:12:57;7.17;;;6.67;;
5175;SDS011;2607;50.934;6.934;2022-08-01T08:15:23;8.10;;;7.03;;
5175;SDS011;2607;50.934;6.934;2022-08-01T08:17:48;10.57;;;8.07;;
5175;SDS011;2607;50.934;6.934;2022-08-01T08:20:14;8.60;;;7.60;;
5175;SDS011;2607;50.934;6.934;2022-08-01T08:22:40;9.53;;;7.50;;
5175;SDS011;2607;50.934;6.934;2022-08-01T08:25:06;10.20;;;7.30;;
5175;SDS011;2607;50.934;6.934;2022-08-01T08:27:32;12.07;;;7.57;;
5175;SDS011;2607;50.934;6.934;2022-08-01T08:29:58;8.40;;;7.13;;
5175;SDS011;2607;50.934;6.934;2022-08-01T08:32:24;7.73;;;6.87;;
5175;SDS011;2607;50.934;6.934;2022-08-01T08:34:50;10.33;;;7.50;;
5175;SDS011;2607;50.934;6.934;2022-08-01T08:37:15;8.03;;;7.40;;
5175;SDS011;2607;50.934;6.934;2022-08-01T08:39:42;7.43;;;6.53;;
5175;SDS011;2607;50.934;6.934;2022-08-01T08:42:08;7.30;;;6.67;;
5175;SDS011;2607;50.934;6.934;2022-08-01T08:44:35;11.73;;;7.03;;
5175;SDS011;2607;50.934;6.934;2022-08-01T08:47:02;8.60;;;5.60;;
5175;SDS011;2607;50.934;6.934;2022-08-01T08:49:30;7.30;;;6.60;;
5175;SDS011;2607;50.934;6.934;2022-08-01T08:51:57;6.47;;;5.90;;
5175;SDS011;2607;50.934;6.934;2022-08-01T08:54:25;7.30;;;6.37;;
5175;SDS011;2607;50.934;6.934;2022-08-01T08:56:52;8.47;;;6.07;;
5175;SDS011;2607;50.934;6.934;2022-08-01T08:59:19;6.10;;;5.50;;
5175;SDS011;2607;50.934;6.934;2022-08-01T09:01:45;6.40;;;5.90;;
5175;SDS011;2607;50.934;6.934;2022-08-01T09:04:12;7.57;;;6.20;;
5175;SDS011;2607;50.934;6.934;2022-08-01T09:06:38;6.47;;;5.87;;
5175;SDS011;2607;50.934;6.934;2022-08-01T09:09:05;6.47;;;5.90;;
5175;SDS011;2607;50.934;6.934;2022-08-01T09:11:32;6.73;;;6.13;;
5175;SDS011;2607;50.934;6.934;2022-08-01T09:14:06;5.70;;;5.20;;
5175;SDS011;2607;50.934;6.934;2022-08-01T09:16:34;6.30;;;5.70;;
5175;SDS011;2607;50.934;6.934;2022-08-01T09:19:09;6.20;;;5.60;;
5175;SDS011;2607;50.934;6.934;2022-08-01T09:21:37;6.00;;;5.50;;
5175;SDS011;2607;50.934;6.934;2022-08-01T09:24:03;5.60;;;5.30;;
5175;SDS011;2607;50.934;6.934;2022-08-01T09:26:37;8.73;;;5.80;;
5175;SDS011;2607;50.934;6.934;2022-08-01T09:29:04;5.30;;;5.00;;
5175;SDS011;2607;50.934;6.934;2022-08-01T09:31:39;9.83;;;6.93;;
5175;SDS011;2607;50.934;6.934;2022-08-01T09:34:06;6.27;;;5.87;;
5175;SDS011;2607;50.934;6.934;2022-08-01T09:36:43;6.03;;;5.60;;
5175;SDS011;2607;50.934;6.934;2022-08-01T09:39:18;6.90;;;6.30;;
5175;SDS011;2607;50.934;6.934;2022-08-01T09:41:44;6.17;;;5.30;;
5175;SDS011;2607;50.934;6.934;2022-08-01T09:44:10;7.33;;;6.40;;
5175;SDS011;2607;50.934;6.934;2022-08-01T09:46:45;5.93;;;5.33;;
5175;SDS011;2607;50.934;6.934;2022-08-01T09:49:28;6.33;;;5.83;;
5175;SDS011;2607;50.934;6.934;2022-08-01T09:51:56;6.23;;;5.63;;
5175;SDS011;2607;50.934;6.934;2022-08-01T09:54:30;5.33;;;5.03;;
5175;SDS011;2607;50.934;6.934;2022-08-01T09:57:10;4.30;;;4.20;;
5175;SDS011;2607;50.934;6.934;2022-08-01T09:59:42;6.30;;;5.70;;
5175;SDS011;2607;50.934;6.934;2022-08-01T10:02:11;10.63;;;4.77;;
5175;SDS011;2607;50.934;6.934;2022-08-01T10:04:47;4.73;;;4.53;;
5175;SDS011;2607;50.934;6.934;2022-08-01T10:07:14;4.83;;;4.53;;
5175;SDS011;2607;50.934;6.934;2022-08-01T10:09:40;4.50;;;4.20;;
5175;SDS011;2607;50.934;6.934;2022-08-01T10:12:08;5.37;;;4.87;;
5175;SDS011;2607;50.934;6.934;2022-08-01T10:14:34;4.20;;;3.83;;
5175;SDS011;2607;50.934;6.934;2022-08-01T10:17:02;5.27;;;4.87;;
5175;SDS011;2607;50.934;6.934;2022-08-01T10:19:29;5.50;;;5.07;;
5175;SDS011;2607;50.934;6.934;2022-08-01T10:21:55;7.80;;;5.60;;
5175;SDS011;2607;50.934;6.934;2022-08-01T10:24:22;5.50;;;5.10;;
5175;SDS011;2607;50.934;6.934;2022-08-01T10:26:50;5.87;;;5.40;;
5175;SDS011;2607;50.934;6.934;2022-08-01T10:29:20;5.50;;;5.10;;
5175;SDS011;2607;50.934;6.934;2022-08-01T10:31:47;4.70;;;4.40;;
5175;SDS011;2607;50.934;6.934;2022-08-01T10:34:13;6.43;;;5.80;;
5175;SDS011;2607;50.934;6.934;2022-08-01T10:36:42;6.23;;;5.37;;
5175;SDS011;2607;50.934;6.934;2022-08-01T10:39:12;5.57;;;5.07;;
5175;SDS011;2607;50.934;6.934;2022-08-01T10:41:38;4.57;;;4.37;;
5175;SDS011;2607;50.934;6.934;2022-08-01T10:44:07;5.20;;;4.90;;
5175;SDS011;2607;50.934;6.934;2022-08-01T10:46:47;6.13;;;4.80;;
5175;SDS011;2607;50.934;6.934;2022-08-01T10:49:16;5.57;;;5.20;;
5175;SDS011;2607;50.934;6.934;2022-08-01T10:51:44;5.17;;;4.77;;
5175;SDS011;2607;50.934;6.934;2022-08-01T10:54:10;4.70;;;4.50;;
5175;SDS011;2607;50.934;6.934;2022-08-01T10:59:15;4.70;;;4.30;;
5175;SDS011;2607;50.934;6.934;2022-08-01T11:01:59;4.10;;;3.80;;
5175;SDS011;2607;50.934;6.934;2022-08-01T11:04:44;3.87;;;3.57;;
5175;SDS011;2607;50.934;6.934;2022-08-01T11:07:16;3.00;;;2.90;;
5175;SDS011;2607;50.934;6.934;2022-08-01T11:09:46;4.00;;;3.80;;
5175;SDS011;2607;50.934;6.934;2022-08-01T11:12:16;7.87;;;4.00;;
5175;SDS011;2607;50.934;6.934;2022-08-01T11:17:33;7.10;;;5.73;;
5175;SDS011;2607;50.934;6.934;2022-08-01T11:33:15;5.63;;;3.60;;
5175;SDS011;2607;50.934;6.934;2022-08-01T11:36:16;4.10;;;3.57;;
5175;SDS011;2607;50.934;6.934;2022-08-01T11:51:48;3.70;;;3.50;;
5175;SDS011;2607;50.934;6.934;2022-08-01T11:54:24;8.43;;;4.20;;
5175;SDS011;2607;50.934;6.934;2022-08-01T11:56:54;3.50;;;3.30;;
5175;SDS011;2607;50.934;6.934;2022-08-01T11:59:21;4.50;;;4.20;;
5175;SDS011;2607;50.934;6.934;2022-08-01T12:01:47;4.10;;;3.20;;
5175;SDS011;2607;50.934;6.934;2022-08-01T12:04:12;2.80;;;2.60;;
5175;SDS011;2607;50.934;6.934;2022-08-01T12:06:38;6.83;;;3.00;;
5175;SDS011;2607;50.934;6.934;2022-08-01T12:09:20;7.00;;;3.20;;
5175;SDS011;2607;50.934;6.934;2022-08-01T12:11:47;3.10;;;2.90;;
5175;SDS011;2607;50.934;6.934;2022-08-01T12:14:19;2.80;;;2.70;;
5175;SDS011;2607;50.934;6.934;2022-08-01T12:16:50;2.77;;;2.67;;
5175;SDS011;2607;50.934;6.934;2022-08-01T12:19:18;5.83;;;3.30;;
5175;SDS011;2607;50.934;6.934;2022-08-01T12:21:45;2.77;;;2.67;;
5175;SDS011;2607;50.934;6.934;2022-08-01T12:24:29;2.83;;;2.73;;
5175;SDS011;2607;50.934;6.934;2022-08-01T12:26:54;2.97;;;2.77;;
5175;SDS011;2607;50.934;6.934;2022-08-01T12:29:36;5.30;;;3.10;;
5175;SDS011;2607;50.934;6.934;2022-08-01T12:32:04;3.83;;;3.63;;
5175;SDS011;2607;50.934;6.934;2022-08-01T12:34:46;3.90;;;3.60;;
5175;SDS011;2607;50.934;6.934;2022-08-01T12:37:11;3.53;;;3.33;;
5175;SDS011;2607;50.934;6.934;2022-08-01T12:39:37;3.00;;;2.90;;
5175;SDS011;2607;50.934;6.934;2022-08-01T12:42:07;3.50;;;3.30;;
5175;SDS011;2607;50.934;6.934;2022-08-01T12:44:35;7.10;;;3.87;;
5175;SDS011;2607;50.934;6.934;2022-08-01T12:47:02;2.97;;;2.87;;
5175;SDS011;2607;50.934;6.934;2022-08-01T12:49:30;2.87;;;2.67;;
5175;SDS011;2607;50.934;6.934;2022-08-01T12:51:57;2.63;;;2.43;;
5175;SDS011;2607;50.934;6.934;2022-08-01T12:54:23;2.73;;;2.53;;
5175;SDS011;2607;50.934;6.934;2022-08-01T12:56:50;4.80;;;2.47;;
5175;SDS011;2607;50.934;6.934;2022-08-01T12:59:25;3.83;;;3.43;;
5175;SDS011;2607;50.934;6.934;2022-08-01T13:01:52;2.67;;;2.47;;
5175;SDS011;2607;50.934;6.934;2022-08-01T13:04:19;2.40;;;2.30;;
5175;SDS011;2607;50.934;6.934;2022-08-01T13:06:45;3.23;;;2.93;;
5175;SDS011;2607;50.934;6.934;2022-08-01T13:09:10;6.17;;;5.67;;
5175;SDS011;2607;50.934;6.934;2022-08-01T13:11:38;4.83;;;4.50;;
5175;SDS011;2607;50.934;6.934;2022-08-01T13:14:04;4.53;;;3.23;;
5175;SDS011;2607;50.934;6.934;2022-08-01T13:16:29;2.63;;;2.53;;
5175;SDS011;2607;50.934;6.934;2022-08-01T13:18:56;2.70;;;2.50;;
5175;SDS011;2607;50.934;6.934;2022-08-01T13:21:23;3.00;;;2.80;;
5175;SDS011;2607;50.934;6.934;2022-08-01T13:24:05;3.23;;;3.00;;
5175;SDS011;2607;50.934;6.934;2022-08-01T13:29:15;2.37;;;2.00;;
5175;SDS011;2607;50.934;6.934;2022-08-01T13:31:53;3.17;;;2.90;;
5175;SDS011;2607;50.934;6.934;2022-08-01T13:34:29;4.00;;;2.97;;
5175;SDS011;2607;50.934;6.934;2022-08-01T13:36:59;2.17;;;2.07;;
5175;SDS011;2607;50.934;6.934;2022-08-01T13:39:26;2.73;;;1.80;;
5175;SDS011;2607;50.934;6.934;2022-08-01T13:42:09;33.83;;;5.57;;
5175;SDS011;2607;50.934;6.934;2022-08-01T13:44:35;9.80;;;5.53;;
5175;SDS011;2607;50.934;6.934;2022-08-01T13:47:02;3.17;;;2.33;;
5175;SDS011;2607;50.934;6.934;2022-08-01T13:49:28;3.40;;;3.10;;
5175;SDS011;2607;50.934;6.934;2022-08-01T13:51:54;3.63;;;3.30;;
5175;SDS011;2607;50.934;6.934;2022-08-01T13:54:19;2.70;;;2.40;;
5175;SDS011;2607;50.934;6.934;2022-08-01T13:56:45;6.90;;;5.83;;
5175;SDS011;2607;50.934;6.934;2022-08-01T13:59:11;2.27;;;2.13;;
5175;SDS011;2607;50.934;6.934;2022-08-01T14:01:37;2.73;;;2.13;;
5175;SDS011;2607;50.934;6.934;2022-08-01T14:04:03;1.80;;;1.80;;
5175;SDS011;2607;50.934;6.934;2022-08-01T14:06:29;3.23;;;1.67;;
5175;SDS011;2607;50.934;6.934;2022-08-01T14:08:55;5.00;;;2.50;;
5175;SDS011;2607;50.934;6.934;2022-08-01T14:11:21;2.23;;;2.13;;
5175;SDS011;2607;50.934;6.934;2022-08-01T14:13:47;1.90;;;1.80;;
5175;SDS011;2607;50.934;6.934;2022-08-01T14:16:13;2.00;;;1.90;;
5175;SDS011;2607;50.934;6.934;2022-08-01T14:18:38;4.20;;;2.63;;
5175;SDS011;2607;50.934;6.934;2022-08-01T14:21:04;3.00;;;2.90;;
5175;SDS011;2607;50.934;6.934;2022-08-01T14:23:29;3.80;;;3.50;;
5175;SDS011;2607;50.934;6.934;2022-08-01T14:25:55;2.60;;;2.40;;
5175;SDS011;2607;50.934;6.934;2022-08-01T14:28:21;4.27;;;3.80;;
5175;SDS011;2607;50.934;6.934;2022-08-01T14:30:46;1.70;;;1.70;;
5175;SDS011;2607;50.934;6.934;2022-08-01T14:33:12;4.87;;;3.23;;
5175;SDS011;2607;50.934;6.934;2022-08-01T14:35:38;1.80;;;1.63;;
5175;SDS011;2607;50.934;6.934;2022-08-01T14:38:04;2.10;;;1.63;;
5175;SDS011;2607;50.934;6.934;2022-08-01T14:40:30;3.70;;;3.30;;
5175;SDS011;2607;50.934;6.934;2022-08-01T14:42:55;1.97;;;1.87;;
5175;SDS011;2607;50.934;6.934;2022-08-01T14:45:21;1.87;;;1.77;;
5175;SDS011;2607;50.934;6.934;2022-08-01T14:47:47;1.70;;;1.70;;
5175;SDS011;2607;50.934;6.934;2022-08-01T14:50:13;2.67;;;2.47;;
5175;SDS011;2607;50.934;6.934;2022-08-01T14:52:40;3.00;;;2.10;;
5175;SDS011;2607;50.934;6.934;2022-08-01T14:55:08;2.20;;;2.10;;
5175;SDS011;2607;50.934;6.934;2022-08-01T14:57:35;4.33;;;4.03;;
5175;SDS011;2607;50.934;6.934;2022-08-01T15:00:03;3.03;;;2.83;;
5175;SDS011;2607;50.934;6.934;2022-08-01T15:02:30;19.87;;;9.93;;
5175;SDS011;2607;50.934;6.934;2022-08-01T15:04:56;10.80;;;7.47;;
5175;SDS011;2607;50.934;6.934;2022-08-01T15:07:21;6.83;;;6.27;;
5175;SDS011;2607;50.934;6.934;2022-08-01T15:09:47;5.13;;;2.73;;
5175;SDS011;2607;50.934;6.934;2022-08-01T15:12:13;3.53;;;3.33;;
5175;SDS011;2607;50.934;6.934;2022-08-01T15:14:39;4.10;;;3.80;;
5175;SDS011;2607;50.934;6.934;2022-08-01T15:17:17;4.87;;;4.37;;
5175;SDS011;2607;50.934;6.934;2022-08-01T15:19:53;3.10;;;2.90;;
5175;SDS011;2607;50.934;6.934;2022-08-01T15:22:20;14.53;;;12.90;;
5175;SDS011;2607;50.934;6.934;2022-08-01T15:24:47;3.07;;;2.83;;
5175;SDS011;2607;50.934;6.934;2022-08-01T15:27:14;2.20;;;2.10;;
5175;SDS011;2607;50.934;6.934;2022-08-01T15:29:39;2.07;;;1.97;;
5175;SDS011;2607;50.934;6.934;2022-08-01T15:32:06;3.40;;;2.73;;
5175;SDS011;2607;50.934;6.934;2022-08-01T15:34:36;5.50;;;4.60;;
5175;SDS011;2607;50.934;6.934;2022-08-01T15:37:02;5.30;;;4.90;;
5175;SDS011;2607;50.934;6.934;2022-08-01T15:39:29;4.83;;;4.00;;
5175;SDS011;2607;50.934;6.934;2022-08-01T15:41:59;4.47;;;2.23;;
5175;SDS011;2607;50.934;6.934;2022-08-01T15:44:28;7.30;;;2.73;;
5175;SDS011;2607;50.934;6.934;2022-08-01T15:46:54;3.33;;;1.90;;
5175;SDS011;2607;50.934;6.934;2022-08-01T15:49:19;2.90;;;2.70;;
5175;SDS011;2607;50.934;6.934;2022-08-01T15:51:48;5.30;;;4.90;;